createdAt,value
2019-03-05T00:01:14.212Z,30.94
2019-03-05T00:03:43.459Z,30.68
2019-03-05T00:06:12.825Z,30.87
2019-03-05T00:08:42.053Z,29.96
2019-03-05T00:11:11.230Z,30.96
2019-03-05T00:13:40.431Z,31.11
2019-03-05T00:16:09.686Z,30.55
2019-03-05T00:18:39.096Z,30.66
2019-03-05T00:21:08.346Z,30.77
2019-03-05T00:23:51.394Z,31.33
2019-03-05T00:26:30.029Z,32.76
2019-03-05T00:29:05.312Z,34.28
2019-03-05T00:31:40.241Z,35.32
2019-03-05T00:34:18.527Z,35.93
2019-03-05T00:36:50.958Z,36.18
2019-03-05T00:39:21.167Z,36.28
2019-03-05T00:42:12.034Z,36.56
2019-03-05T00:45:00.673Z,37.16
2019-03-05T00:47:33.165Z,37.23
2019-03-05T00:50:17.594Z,37.33
2019-03-05T00:53:09.591Z,36.93
2019-03-05T00:55:50.744Z,36.41
2019-03-05T00:58:29.175Z,36.40
2019-03-05T01:01:27.155Z,35.90
2019-03-05T01:04:02.490Z,34.82
2019-03-05T01:06:31.739Z,34.26
2019-03-05T01:09:01.055Z,34.30
2019-03-05T01:11:30.490Z,34.48
2019-03-05T01:13:59.810Z,34.33
2019-03-05T01:16:33.339Z,34.08
2019-03-05T01:19:02.538Z,34.07
2019-03-05T01:21:31.821Z,33.50
2019-03-05T01:24:01.101Z,34.17
2019-03-05T01:26:30.353Z,34.23
2019-03-05T01:28:59.652Z,34.86
2019-03-05T01:31:42.437Z,35.10
2019-03-05T01:34:16.078Z,35.16
2019-03-05T01:36:52.951Z,35.13
2019-03-05T01:39:32.781Z,35.67
2019-03-05T01:42:02.079Z,36.06
2019-03-05T01:44:31.327Z,36.43
2019-03-05T01:47:00.576Z,36.90
2019-03-05T01:49:29.842Z,37.14
2019-03-05T01:51:59.051Z,37.93
2019-03-05T01:54:28.386Z,38.26
2019-03-05T01:56:57.662Z,38.81
2019-03-05T01:59:26.888Z,38.72
2019-03-05T02:01:56.127Z,38.78
2019-03-05T02:04:25.493Z,39.34
2019-03-05T02:06:54.899Z,39.30
2019-03-05T02:09:24.147Z,39.93
2019-03-05T02:11:53.329Z,40.09
2019-03-05T02:14:22.714Z,39.84
2019-03-05T02:16:52.027Z,39.68
2019-03-05T02:19:35.832Z,39.37
2019-03-05T02:22:07.675Z,39.23
2019-03-05T02:25:13.269Z,39.67
2019-03-05T02:27:54.820Z,40.10
2019-03-05T02:30:59.029Z,39.90
2019-03-05T02:33:51.146Z,39.46
2019-03-05T02:36:46.426Z,40.15
2019-03-05T02:39:46.089Z,40.01
2019-03-05T02:42:42.739Z,40.24
2019-03-05T02:45:31.609Z,40.73
2019-03-05T02:48:13.604Z,41.03
2019-03-05T02:50:51.894Z,40.93
2019-03-05T02:53:36.227Z,40.89
2019-03-05T02:56:23.544Z,40.70
2019-03-05T02:58:51.849Z,40.09
2019-03-05T03:01:38.942Z,40.16
2019-03-05T03:04:09.791Z,40.41
2019-03-05T03:06:39.607Z,39.79
2019-03-05T03:09:32.078Z,40.18
2019-03-05T03:12:01.319Z,39.89
2019-03-05T03:14:30.582Z,39.46
2019-03-05T03:16:59.813Z,39.31
2019-03-05T03:19:28.993Z,39.40
2019-03-05T03:21:58.166Z,39.43
2019-03-05T03:24:27.513Z,39.12
2019-03-05T03:26:56.837Z,38.62
2019-03-05T03:29:26.175Z,39.04
2019-03-05T03:31:55.412Z,38.92
2019-03-05T03:34:24.689Z,39.13
2019-03-05T03:36:54.003Z,39.59
2019-03-05T03:39:23.214Z,39.35
2019-03-05T03:41:52.515Z,39.51
2019-03-05T03:44:21.751Z,38.89
2019-03-05T03:46:51.068Z,38.87
2019-03-05T03:49:20.407Z,39.60
2019-03-05T03:51:51.339Z,40.15
2019-03-05T03:54:20.688Z,39.45
2019-03-05T03:56:51.066Z,39.58
2019-03-05T03:59:20.285Z,39.73
2019-03-05T04:01:49.534Z,39.78
2019-03-05T04:04:18.785Z,39.63
2019-03-05T04:06:48.063Z,39.18
2019-03-05T04:09:17.336Z,38.59
2019-03-05T04:11:46.647Z,38.85
2019-03-05T04:14:15.896Z,38.18
2019-03-05T04:16:45.162Z,37.98
2019-03-05T04:19:16.097Z,38.31
2019-03-05T04:21:45.271Z,38.48
2019-03-05T04:24:14.516Z,38.69
2019-03-05T04:26:43.810Z,38.59
2019-03-05T04:29:13.136Z,38.17
2019-03-05T04:31:42.316Z,38.18
2019-03-05T04:34:11.546Z,38.18
2019-03-05T04:36:40.788Z,38.40
2019-03-05T04:39:11.915Z,37.85
2019-03-05T04:41:41.140Z,38.33
2019-03-05T04:44:10.604Z,38.15
2019-03-05T04:46:39.809Z,38.05
2019-03-05T04:49:10.641Z,38.07
2019-03-05T04:51:41.508Z,38.33
2019-03-05T04:54:10.822Z,38.02
2019-03-05T04:56:40.145Z,38.91
2019-03-05T04:59:09.366Z,38.79
2019-03-05T05:01:38.618Z,38.83
2019-03-05T05:04:07.811Z,38.31
2019-03-05T05:06:37.113Z,38.18
2019-03-05T05:09:07.437Z,37.96
2019-03-05T05:11:36.675Z,38.19
2019-03-05T05:14:05.976Z,37.91
2019-03-05T05:16:35.230Z,37.67
2019-03-05T05:19:04.475Z,37.78
2019-03-05T05:21:33.842Z,37.95
2019-03-05T05:24:03.101Z,38.34
2019-03-05T05:26:32.345Z,38.30
2019-03-05T05:29:01.655Z,38.53
2019-03-05T05:31:30.827Z,38.16
2019-03-05T05:34:00.074Z,37.72
2019-03-05T05:36:29.491Z,38.12
2019-03-05T05:38:58.733Z,38.13
2019-03-05T05:41:28.021Z,38.05
2019-03-05T05:43:57.470Z,37.65
2019-03-05T05:46:26.845Z,38.05
2019-03-05T05:48:56.186Z,37.67
2019-03-05T05:51:25.652Z,38.49
2019-03-05T05:53:55.070Z,38.06
2019-03-05T05:56:24.625Z,38.42
2019-03-05T05:58:53.894Z,37.76
2019-03-05T06:01:23.293Z,38.06
2019-03-05T06:03:52.833Z,38.15
2019-03-05T06:06:22.221Z,37.72
2019-03-05T06:08:51.605Z,37.63
2019-03-05T06:11:21.067Z,37.55
2019-03-05T06:13:50.330Z,37.87
2019-03-05T06:16:19.593Z,37.88
2019-03-05T06:18:49.045Z,37.21
2019-03-05T06:21:18.536Z,36.97
2019-03-05T06:23:47.788Z,36.33
2019-03-05T06:26:17.131Z,35.81
2019-03-05T06:28:46.457Z,35.35
2019-03-05T06:31:16.054Z,35.33
2019-03-05T06:33:45.367Z,34.86
2019-03-05T06:36:14.696Z,33.44
2019-03-05T06:38:44.149Z,32.69
2019-03-05T06:41:13.483Z,31.26
2019-03-05T06:43:42.867Z,30.37
2019-03-05T06:46:12.497Z,29.39
2019-03-05T06:48:41.907Z,28.45
2019-03-05T06:51:11.409Z,27.19
2019-03-05T06:53:40.904Z,26.54
2019-03-05T06:56:10.317Z,25.85
2019-03-05T06:58:39.637Z,24.43
2019-03-05T07:01:09.188Z,23.41
2019-03-05T07:03:38.444Z,24.75
2019-03-05T07:06:36.927Z,24.23
2019-03-05T07:09:18.085Z,24.01
2019-03-05T07:12:08.844Z,24.58
2019-03-05T07:15:07.027Z,24.49
2019-03-05T07:18:00.788Z,23.96
2019-03-05T07:20:39.072Z,23.19
2019-03-05T07:23:26.496Z,23.08
2019-03-05T07:25:55.761Z,22.40
2019-03-05T07:28:25.124Z,21.77
2019-03-05T07:30:54.374Z,22.30
2019-03-05T07:33:24.025Z,22.13
2019-03-05T07:35:53.418Z,22.00
2019-03-05T07:38:22.843Z,21.92
2019-03-05T07:40:52.145Z,22.28
2019-03-05T07:43:21.698Z,22.33
2019-03-05T07:45:50.960Z,22.41
2019-03-05T07:48:20.293Z,22.07
2019-03-05T07:50:49.741Z,21.71
2019-03-05T07:53:19.133Z,21.43
2019-03-05T07:55:48.535Z,21.24
2019-03-05T07:58:18.060Z,22.09
2019-03-05T08:00:47.352Z,22.25
2019-03-05T08:03:16.745Z,22.16
2019-03-05T08:05:47.499Z,22.56
2019-03-05T08:08:53.528Z,22.71
2019-03-05T08:11:22.945Z,22.56
2019-03-05T08:14:10.534Z,22.15
2019-03-05T08:16:39.928Z,21.84
2019-03-05T08:19:09.184Z,22.35
2019-03-05T08:21:38.774Z,22.60
2019-03-05T08:24:08.098Z,24.32
2019-03-05T08:26:37.360Z,24.37
2019-03-05T08:29:06.699Z,24.83
2019-03-05T08:31:36.020Z,25.33
2019-03-05T08:34:05.497Z,25.51
2019-03-05T08:36:34.819Z,25.47
2019-03-05T08:39:05.929Z,25.99
2019-03-05T08:41:35.200Z,25.85
2019-03-05T08:44:04.705Z,26.43
2019-03-05T08:46:34.040Z,27.19
2019-03-05T08:49:03.345Z,27.73
2019-03-05T08:51:32.617Z,28.75
2019-03-05T08:54:02.019Z,29.26
2019-03-05T08:56:31.378Z,29.65
2019-03-05T08:59:00.776Z,29.53
2019-03-05T09:01:30.130Z,29.26
2019-03-05T09:03:59.522Z,28.72
2019-03-05T09:06:29.062Z,29.04
2019-03-05T09:08:58.334Z,29.98
2019-03-05T09:11:27.863Z,30.94
2019-03-05T09:13:57.190Z,31.21
2019-03-05T09:16:26.528Z,31.06
2019-03-05T09:18:55.885Z,32.11
2019-03-05T09:21:25.331Z,32.67
2019-03-05T09:23:54.739Z,32.72
2019-03-05T09:26:24.137Z,32.11
2019-03-05T09:28:54.825Z,32.57
2019-03-05T09:31:24.096Z,32.69
2019-03-05T09:33:53.627Z,32.74
2019-03-05T09:36:22.897Z,33.39
2019-03-05T09:38:52.207Z,33.80
2019-03-05T09:41:21.695Z,34.56
2019-03-05T09:43:50.974Z,35.13
2019-03-05T09:46:20.375Z,34.62
2019-03-05T09:48:49.814Z,34.06
2019-03-05T09:51:19.219Z,33.57
2019-03-05T09:53:48.532Z,32.73
2019-03-05T09:56:17.979Z,32.54
2019-03-05T09:58:47.524Z,32.86
2019-03-05T10:01:16.783Z,32.88
2019-03-05T10:03:46.177Z,31.47
2019-03-05T10:06:15.610Z,30.39
2019-03-05T10:08:44.999Z,29.08
2019-03-05T10:11:14.319Z,28.92
2019-03-05T10:13:43.730Z,28.76
2019-03-05T10:16:13.168Z,28.24
2019-03-05T10:18:42.587Z,28.34
2019-03-05T10:21:12.157Z,28.47
2019-03-05T10:23:41.466Z,28.43
2019-03-05T10:26:10.799Z,27.40
2019-03-05T10:28:40.534Z,27.16
2019-03-05T10:31:09.872Z,27.68
2019-03-05T10:33:39.198Z,28.71
2019-03-05T10:36:09.166Z,29.44
2019-03-05T10:38:38.430Z,29.24
2019-03-05T10:41:07.893Z,29.31
2019-03-05T10:43:37.143Z,29.88
2019-03-05T10:46:06.469Z,30.39
2019-03-05T10:48:35.916Z,30.89
2019-03-05T10:51:05.444Z,29.86
2019-03-05T10:53:34.765Z,30.07
2019-03-05T10:56:04.144Z,30.67
2019-03-05T10:58:34.474Z,31.00
2019-03-05T11:01:05.570Z,31.21
2019-03-05T11:03:34.983Z,30.21
2019-03-05T11:06:06.046Z,31.07
2019-03-05T11:08:35.384Z,31.56
2019-03-05T11:11:13.023Z,32.66
2019-03-05T11:13:35.871Z,32.97
2019-03-05T11:16:06.197Z,33.25
2019-03-05T11:18:35.595Z,33.75
2019-03-05T11:21:05.496Z,33.85
2019-03-05T11:23:34.932Z,33.14
2019-03-05T11:26:04.611Z,33.02
2019-03-05T11:28:34.011Z,33.36
2019-03-05T11:31:03.402Z,33.78
2019-03-05T11:33:32.809Z,34.19
2019-03-05T11:36:02.209Z,34.55
2019-03-05T11:38:31.456Z,34.14
2019-03-05T11:41:00.916Z,33.48
2019-03-05T11:43:30.318Z,34.40
2019-03-05T11:45:59.570Z,34.65
2019-03-05T11:48:28.995Z,34.08
2019-03-05T11:50:58.552Z,34.72
2019-03-05T11:53:27.845Z,34.97
2019-03-05T11:55:57.239Z,35.00
2019-03-05T11:58:26.609Z,35.54
2019-03-05T12:01:00.278Z,35.65
2019-03-05T12:03:29.621Z,35.73
2019-03-05T15:54:21.893Z,33.61
2019-03-05T15:56:51.140Z,34.08
2019-03-05T15:59:20.499Z,33.76
2019-03-05T16:01:49.911Z,33.86
2019-03-05T16:04:19.257Z,33.64
2019-03-05T16:06:49.780Z,34.15
2019-03-05T16:09:19.184Z,33.39
2019-03-05T16:11:48.394Z,34.28
2019-03-05T16:14:17.657Z,34.06
2019-03-05T16:16:47.099Z,34.31
2019-03-05T16:19:17.738Z,35.22
2019-03-05T16:21:47.281Z,35.26
2019-03-05T16:24:16.492Z,35.25
2019-03-05T16:26:45.820Z,35.13
2019-03-05T16:29:16.329Z,35.31
2019-03-05T16:31:49.807Z,35.03
2019-03-05T16:34:35.726Z,36.02
2019-03-05T16:37:07.131Z,35.88
2019-03-05T16:39:38.122Z,35.28
2019-03-05T16:42:18.249Z,36.03
2019-03-05T16:44:52.536Z,35.59
2019-03-05T16:47:39.903Z,35.98
2019-03-05T16:50:27.612Z,35.69
2019-03-05T16:53:14.848Z,35.51
2019-03-05T16:55:45.813Z,35.21
2019-03-05T16:58:22.813Z,35.80
2019-03-05T17:00:59.497Z,35.72
2019-03-05T17:03:32.834Z,35.41
2019-03-05T17:06:06.215Z,35.28
2019-03-05T17:08:37.158Z,35.30
2019-03-05T17:11:14.804Z,37.03
2019-03-05T17:13:44.042Z,38.17
2019-03-05T17:16:13.226Z,40.30
2019-03-05T17:18:42.463Z,42.20
2019-03-05T17:21:11.695Z,42.88
2019-03-05T17:23:40.870Z,42.39
2019-03-05T17:26:10.128Z,42.61
2019-03-05T17:28:39.332Z,42.41
2019-03-05T17:31:08.574Z,41.42
2019-03-05T17:33:38.218Z,41.42
2019-03-05T17:36:07.401Z,41.02
2019-03-05T17:38:36.651Z,41.11
2019-03-05T17:41:06.021Z,41.05
2019-03-05T17:43:35.204Z,40.71
2019-03-05T17:46:04.459Z,40.68
2019-03-05T17:48:33.661Z,40.72
2019-03-05T17:51:02.907Z,40.42
2019-03-05T17:53:32.912Z,40.74
2019-03-05T17:56:02.157Z,41.19
2019-03-05T17:58:31.406Z,41.76
2019-03-05T18:01:00.671Z,41.95
2019-03-05T18:03:30.016Z,42.17
2019-03-05T18:05:59.383Z,42.01
2019-03-05T18:08:28.665Z,41.57
2019-03-05T18:10:57.898Z,41.59
2019-03-05T18:13:27.113Z,40.93
2019-03-05T18:15:56.337Z,41.50
2019-03-05T18:18:25.514Z,40.89
2019-03-05T18:20:54.765Z,41.16
2019-03-05T18:23:24.031Z,40.38
2019-03-05T18:25:53.337Z,39.88
2019-03-05T18:28:22.509Z,40.36
2019-03-05T18:30:51.762Z,40.70
2019-03-05T18:33:21.030Z,41.08
2019-03-05T18:35:50.606Z,41.18
2019-03-05T18:38:19.848Z,40.74
2019-03-05T18:40:49.477Z,40.54
2019-03-05T18:43:18.756Z,40.46
2019-03-05T18:45:47.961Z,39.79
2019-03-05T18:48:18.096Z,40.41
2019-03-05T18:50:47.276Z,41.11
2019-03-05T18:53:16.643Z,40.98
2019-03-05T18:55:45.987Z,40.26
2019-03-05T18:58:15.186Z,40.37
2019-03-05T19:00:44.453Z,40.34
2019-03-05T19:03:18.244Z,40.25
2019-03-05T19:05:47.902Z,40.52
2019-03-05T19:08:17.082Z,40.46
2019-03-05T19:10:46.413Z,40.24
2019-03-05T19:13:15.734Z,40.33
2019-03-05T19:15:45.285Z,39.71
2019-03-05T19:18:14.552Z,40.07
2019-03-05T19:20:43.799Z,40.12
2019-03-05T19:23:13.099Z,39.84
2019-03-05T19:25:44.653Z,39.34
2019-03-05T19:28:14.061Z,39.51
2019-03-05T19:30:49.086Z,39.33
2019-03-05T19:33:18.355Z,38.93
2019-03-05T19:35:47.676Z,39.05
2019-03-05T19:38:17.018Z,38.77
2019-03-05T19:40:47.596Z,38.14
2019-03-05T19:43:16.848Z,38.28
2019-03-05T19:45:46.091Z,38.51
2019-03-05T19:48:15.296Z,38.79
2019-03-05T19:50:44.729Z,38.77
2019-03-05T19:53:14.039Z,39.02
2019-03-05T19:55:43.359Z,37.98
2019-03-05T19:58:14.184Z,39.02
2019-03-05T20:00:53.287Z,39.06
2019-03-05T20:03:22.538Z,38.72
2019-03-05T20:05:51.812Z,38.51
2019-03-05T20:08:21.153Z,38.76
2019-03-05T20:10:50.430Z,38.39
2019-03-05T20:13:19.705Z,39.01
2019-03-05T20:15:49.041Z,39.00
2019-03-05T20:18:18.492Z,38.81
2019-03-05T20:20:47.765Z,38.31
2019-03-05T20:23:17.179Z,38.78
2019-03-05T20:25:46.551Z,38.55
2019-03-05T20:28:15.723Z,38.89
2019-03-05T20:30:45.099Z,39.19
2019-03-05T20:33:14.399Z,39.72
2019-03-05T20:35:44.264Z,39.44
2019-03-05T20:38:13.555Z,39.70
2019-03-05T20:40:42.854Z,39.96
2019-03-05T20:43:12.176Z,40.07
2019-03-05T20:45:44.798Z,39.74
2019-03-05T20:48:14.656Z,40.00
2019-03-05T20:50:43.909Z,40.42
2019-03-05T20:53:13.199Z,39.66
2019-03-05T20:55:42.433Z,40.11
2019-03-05T20:58:11.729Z,39.11
2019-03-05T21:00:41.249Z,39.98
2019-03-05T21:03:11.660Z,39.85
2019-03-05T21:05:44.166Z,40.09
2019-03-05T21:08:13.400Z,40.03
2019-03-05T21:10:42.722Z,39.87
2019-03-05T21:13:12.326Z,40.40
2019-03-05T21:15:41.595Z,40.47
2019-03-05T21:18:13.742Z,40.79
2019-03-05T21:20:43.005Z,40.66
2019-03-05T21:23:12.249Z,40.56
2019-03-05T21:25:41.466Z,40.08
2019-03-05T21:28:10.720Z,40.36
2019-03-05T21:30:39.896Z,41.20
2019-03-05T21:33:09.114Z,41.75
2019-03-05T21:35:39.300Z,41.82
2019-03-05T21:38:08.546Z,42.01
2019-03-05T21:40:37.727Z,41.67
2019-03-05T21:43:06.969Z,41.99
2019-03-05T21:45:51.978Z,42.63
2019-03-05T21:48:21.274Z,43.22
2019-03-05T21:50:50.522Z,43.03
2019-03-05T21:53:19.769Z,42.43
2019-03-05T21:55:48.965Z,43.07
2019-03-05T21:58:18.160Z,43.36
2019-03-05T22:00:47.354Z,43.59
2019-03-05T22:03:16.736Z,44.18
2019-03-05T22:05:45.921Z,44.30
2019-03-05T22:08:15.112Z,44.21
2019-03-05T22:10:44.314Z,44.33
2019-03-05T22:13:13.509Z,44.15
2019-03-05T22:15:42.751Z,44.38
2019-03-05T22:18:11.997Z,43.71
2019-03-05T22:20:41.323Z,45.10
2019-03-05T22:23:10.654Z,45.33
2019-03-05T22:25:39.864Z,45.09
2019-03-05T22:28:09.326Z,44.84
2019-03-05T22:30:39.230Z,44.07
2019-03-05T22:33:08.670Z,44.46
2019-03-05T22:35:38.635Z,44.70
2019-03-05T22:38:07.883Z,43.91
2019-03-05T22:40:37.197Z,44.33
2019-03-05T22:43:06.447Z,43.71
2019-03-05T22:45:35.863Z,44.76
2019-03-05T22:48:05.110Z,44.64
2019-03-05T22:50:34.451Z,45.78
2019-03-05T22:53:03.694Z,45.70
2019-03-05T22:55:32.967Z,45.60
2019-03-05T22:58:02.384Z,45.86
2019-03-05T23:00:54.513Z,45.36
2019-03-05T23:03:29.089Z,45.57
2019-03-05T23:05:58.626Z,45.70
2019-03-05T23:08:27.868Z,45.93
2019-03-05T23:10:57.139Z,46.01
2019-03-05T23:13:26.752Z,46.15
2019-03-05T23:15:56.045Z,45.39
2019-03-05T23:18:25.274Z,46.04
2019-03-05T23:20:54.459Z,45.72
2019-03-05T23:23:23.739Z,45.99
2019-03-05T23:25:53.040Z,45.56
2019-03-05T23:28:22.395Z,45.86
2019-03-05T23:30:51.719Z,45.59
2019-03-05T23:33:20.921Z,45.59
2019-03-05T23:35:50.200Z,45.79
2019-03-05T23:38:19.503Z,45.59
2019-03-05T23:40:48.940Z,45.47
2019-03-05T23:43:18.257Z,45.54
2019-03-05T23:45:47.543Z,45.65
2019-03-05T23:48:16.720Z,45.73
2019-03-05T23:50:46.045Z,46.01
2019-03-05T23:53:15.592Z,45.98
2019-03-05T23:55:44.968Z,46.16
2019-03-05T23:58:14.149Z,45.43
